Time,TemperatureF,DewpointF,PressureIn,WindDirection,WindDirectionDegrees,WindSpeedMPH,WindSpeedGustMPH,Humidity,HourlyPrecipIn,Conditions,Clouds,dailyrainin,SolarRadiationWatts/m^2,SoftwareType,DateUTC
2013-02-25 00:21:00,13.0,12.0,-100.00,NE,55,0.0,2.0,95,-99.99,,,0.00,0.000000,,2013-02-25 09:21:00,
2013-02-25 02:11:00,9.0,8.0,-100.00,ENE,71,0.0,4.0,94,-99.99,,,0.00,0.000000,,2013-02-25 11:11:00,
2013-02-25 02:21:00,9.0,8.0,-100.00,ENE,71,0.0,4.0,94,-99.99,,,0.00,0.000000,,2013-02-25 11:21:00,
2013-02-25 03:11:00,8.0,6.0,-100.00,East,84,0.0,1.0,91,-99.99,,,0.00,0.000000,,2013-02-25 12:11:00,
2013-02-25 04:12:00,6.0,4.0,-100.00,ENE,62,0.0,0.0,92,-99.99,,,0.00,0.000000,,2013-02-25 13:12:00,
2013-02-25 04:22:00,6.0,4.0,-100.00,ENE,62,0.0,0.0,92,-99.99,,,0.00,0.000000,,2013-02-25 13:22:00,
2013-02-25 05:16:00,6.0,4.0,-100.00,North,10,0.0,1.0,92,-99.99,,,-99.99,0.000000,,2013-02-25 14:16:00,
2013-02-25 05:21:00,6.0,4.0,-100.00,North,10,0.0,1.0,92,-99.99,,,-99.99,0.000000,,2013-02-25 14:21:00,
2013-02-25 06:11:00,5.0,3.0,-100.00,NE,50,0.0,0.0,92,-99.99,,,0.00,0.000000,,2013-02-25 15:11:00,
2013-02-25 06:21:00,5.0,3.0,-100.00,NE,50,0.0,0.0,92,-99.99,,,0.00,0.000000,,2013-02-25 15:21:00,
2013-02-25 07:21:00,4.0,2.0,-100.00,East,81,0.0,1.0,90,-99.99,,,0.00,0.000000,,2013-02-25 16:21:00,
2013-02-25 09:12:00,6.0,4.0,-100.00,ENE,74,0.0,3.0,91,-99.99,,,0.00,1.000000,,2013-02-25 18:12:00,
2013-02-25 09:21:00,6.0,4.0,-100.00,ENE,74,0.0,3.0,91,-99.99,,,0.00,1.000000,,2013-02-25 18:21:00,
2013-02-25 10:11:00,12.0,11.0,-100.00,ENE,72,0.0,2.0,94,-99.99,,,0.00,7.000000,,2013-02-25 19:11:00,
2013-02-25 10:21:00,12.0,11.0,-100.00,ENE,72,0.0,2.0,94,-99.99,,,0.00,7.000000,,2013-02-25 19:21:00,
2013-02-25 11:11:00,19.0,17.0,-100.00,NNE,25,0.0,1.0,92,-99.99,,,0.00,13.000000,,2013-02-25 20:11:00,
2013-02-25 11:21:00,19.0,17.0,-100.00,NNE,25,0.0,1.0,92,-99.99,,,0.00,13.000000,,2013-02-25 20:21:00,
2013-02-25 12:11:00,28.0,26.0,-100.00,North,3,0.0,4.0,91,-99.99,,,0.00,24.000000,,2013-02-25 21:11:00,
2013-02-25 12:21:00,28.0,26.0,-100.00,North,3,0.0,4.0,91,-99.99,,,0.00,24.000000,,2013-02-25 21:21:00,
2013-02-25 12:31:00,28.0,26.0,-100.00,North,3,0.0,4.0,91,-99.99,,,0.00,24.000000,,2013-02-25 21:31:00,
2013-02-25 12:41:00,28.0,26.0,-100.00,North,3,0.0,4.0,91,-99.99,,,0.00,24.000000,,2013-02-25 21:41:00,
2013-02-25 12:51:00,28.0,26.0,-100.00,North,3,0.0,4.0,91,-99.99,,,0.00,24.000000,,2013-02-25 21:51:00,
2013-02-25 13:11:00,33.0,29.0,-100.00,North,358,1.0,4.0,85,0.00,,,0.00,27.000000,,2013-02-25 22:11:00,
2013-02-25 13:21:00,33.0,29.0,-100.00,North,358,1.0,4.0,85,0.00,,,0.00,27.000000,,2013-02-25 22:21:00,
2013-02-25 13:31:00,33.0,29.0,-100.00,North,358,1.0,4.0,85,0.00,,,0.00,27.000000,,2013-02-25 22:31:00,
2013-02-25 13:41:00,33.0,29.0,-100.00,North,358,1.0,4.0,85,0.00,,,0.00,27.000000,,2013-02-25 22:41:00,
2013-02-25 13:51:00,33.0,29.0,-100.00,North,358,1.0,4.0,85,0.00,,,0.00,27.000000,,2013-02-25 22:51:00,
2013-02-25 14:11:00,35.0,30.0,-100.00,North,7,0.0,3.0,81,0.00,,,0.00,25.000000,,2013-02-25 23:11:00,
2013-02-25 14:22:00,35.0,30.0,-100.00,North,7,0.0,3.0,81,0.00,,,0.00,25.000000,,2013-02-25 23:22:00,
2013-02-25 14:31:00,35.0,30.0,-100.00,North,7,0.0,3.0,81,0.00,,,0.00,25.000000,,2013-02-25 23:31:00,
2013-02-25 14:41:00,35.0,30.0,-100.00,North,7,0.0,3.0,81,0.00,,,0.00,25.000000,,2013-02-25 23:41:00,
2013-02-25 14:51:00,35.0,30.0,-100.00,North,7,0.0,3.0,81,0.00,,,0.00,25.000000,,2013-02-25 23:51:00,
2013-02-25 15:11:00,37.0,29.0,-100.00,NE,37,3.0,9.0,72,0.00,,,0.00,52.000000,,2013-02-26 00:11:00,
2013-02-25 15:21:00,37.0,29.0,-100.00,NE,37,3.0,9.0,72,0.00,,,0.00,52.000000,,2013-02-26 00:21:00,
2013-02-25 15:32:00,37.0,29.0,-100.00,NE,37,3.0,9.0,72,0.00,,,0.00,52.000000,,2013-02-26 00:32:00,
2013-02-25 15:41:00,37.0,29.0,-100.00,NE,37,3.0,9.0,72,0.00,,,0.00,52.000000,,2013-02-26 00:41:00,
2013-02-25 15:51:00,37.0,29.0,-100.00,NE,37,3.0,9.0,72,0.00,,,0.00,52.000000,,2013-02-26 00:51:00,
2013-02-25 16:11:00,37.0,27.0,-100.00,NNE,28,4.0,12.0,67,0.00,,,0.00,69.000000,,2013-02-26 01:11:00,
2013-02-25 16:21:00,37.0,27.0,-100.00,NNE,28,4.0,12.0,67,0.00,,,0.00,69.000000,,2013-02-26 01:21:00,
2013-02-25 16:31:00,37.0,27.0,-100.00,NNE,28,4.0,12.0,67,0.00,,,0.00,69.000000,,2013-02-26 01:31:00,
2013-02-25 16:41:00,37.0,27.0,-100.00,NNE,28,4.0,12.0,67,0.00,,,0.00,69.000000,,2013-02-26 01:41:00,
2013-02-25 16:51:00,37.0,27.0,-100.00,NNE,28,4.0,12.0,67,0.00,,,0.00,69.000000,,2013-02-26 01:51:00,
2013-02-25 17:11:00,33.0,25.0,-100.00,NNW,335,2.0,10.0,73,0.00,,,0.00,44.000000,,2013-02-26 02:11:00,
2013-02-25 17:21:00,33.0,25.0,-100.00,NNW,335,2.0,10.0,73,0.00,,,0.00,44.000000,,2013-02-26 02:21:00,
2013-02-25 17:32:00,33.0,25.0,-100.00,NNW,335,2.0,10.0,73,0.00,,,0.00,44.000000,,2013-02-26 02:32:00,
2013-02-25 17:41:00,33.0,25.0,-100.00,NNW,335,2.0,10.0,73,0.00,,,0.00,44.000000,,2013-02-26 02:41:00,
2013-02-25 17:51:00,33.0,25.0,-100.00,NNW,335,2.0,10.0,73,0.00,,,0.00,44.000000,,2013-02-26 02:51:00,
2013-02-25 18:11:00,34.0,27.0,-100.00,North,1,3.0,14.0,75,0.00,,,0.00,20.000000,,2013-02-26 03:11:00,
2013-02-25 18:21:00,34.0,27.0,-100.00,North,1,3.0,14.0,75,0.00,,,0.00,20.000000,,2013-02-26 03:21:00,
2013-02-25 18:31:00,34.0,27.0,-100.00,North,1,3.0,14.0,75,0.00,,,0.00,20.000000,,2013-02-26 03:31:00,
2013-02-25 18:41:00,34.0,27.0,-100.00,North,1,3.0,14.0,75,0.00,,,0.00,20.000000,,2013-02-26 03:41:00,
2013-02-25 18:51:00,34.0,27.0,-100.00,North,1,3.0,14.0,75,0.00,,,0.00,20.000000,,2013-02-26 03:51:00,
2013-02-25 19:21:00,33.0,27.0,-100.00,NNE,15,5.0,12.0,78,0.00,,,0.00,2.000000,,2013-02-26 04:21:00,
2013-02-25 19:32:00,33.0,27.0,-100.00,NNE,15,5.0,12.0,78,0.00,,,0.00,2.000000,,2013-02-26 04:32:00,
2013-02-25 19:42:00,33.0,27.0,-100.00,NNE,15,5.0,12.0,78,0.00,,,0.00,2.000000,,2013-02-26 04:42:00,
2013-02-25 19:51:00,33.0,27.0,-100.00,NNE,15,5.0,12.0,78,0.00,,,0.00,2.000000,,2013-02-26 04:51:00,
2013-02-25 19:52:00,32.0,27.0,-100.00,North,356,3.0,14.0,81,0.00,,,0.00,0.000000,,2013-02-26 04:52:00,
2013-02-25 20:11:00,32.0,27.0,-100.00,North,356,3.0,14.0,81,0.00,,,0.00,0.000000,,2013-02-26 05:11:00,
2013-02-25 20:21:00,32.0,27.0,-100.00,North,356,3.0,14.0,81,0.00,,,0.00,0.000000,,2013-02-26 05:21:00,
2013-02-25 20:31:00,32.0,27.0,-100.00,North,356,3.0,14.0,81,0.00,,,0.00,0.000000,,2013-02-26 05:31:00,
2013-02-25 20:42:00,32.0,27.0,-100.00,North,356,3.0,14.0,81,0.00,,,0.00,0.000000,,2013-02-26 05:42:00,
2013-02-25 21:21:00,31.0,26.0,-100.00,NNE,12,4.0,14.0,82,0.00,,,0.00,0.000000,,2013-02-26 06:21:00,
2013-02-25 21:31:00,31.0,26.0,-100.00,NNE,12,4.0,14.0,82,0.00,,,0.00,0.000000,,2013-02-26 06:31:00,
2013-02-25 21:41:00,31.0,26.0,-100.00,NNE,12,4.0,14.0,82,0.00,,,0.00,0.000000,,2013-02-26 06:41:00,
2013-02-25 21:51:00,31.0,26.0,-100.00,NNE,12,4.0,14.0,82,0.00,,,0.00,0.000000,,2013-02-26 06:51:00,
2013-02-25 22:22:00,31.0,27.0,-100.00,North,6,4.0,11.0,85,0.00,,,0.00,0.000000,,2013-02-26 07:22:00,
2013-02-25 22:31:00,31.0,27.0,-100.00,North,6,4.0,11.0,85,0.00,,,0.00,0.000000,,2013-02-26 07:31:00,
2013-02-25 22:41:00,31.0,27.0,-100.00,North,6,4.0,11.0,85,0.00,,,0.00,0.000000,,2013-02-26 07:41:00,
2013-02-25 22:51:00,31.0,27.0,-100.00,North,6,4.0,11.0,85,0.00,,,0.00,0.000000,,2013-02-26 07:51:00,
2013-02-25 23:11:00,31.0,27.0,-100.00,North,7,4.0,12.0,84,0.00,,,0.00,0.000000,,2013-02-26 08:11:00,
2013-02-25 23:21:00,31.0,27.0,-100.00,North,7,4.0,12.0,84,0.00,,,0.00,0.000000,,2013-02-26 08:21:00,
2013-02-25 23:31:00,31.0,27.0,-100.00,North,7,4.0,12.0,84,0.00,,,0.00,0.000000,,2013-02-26 08:31:00,
2013-02-25 23:41:00,31.0,27.0,-100.00,North,7,4.0,12.0,84,0.00,,,0.00,0.000000,,2013-02-26 08:41:00,
2013-02-25 23:51:00,31.0,27.0,-100.00,North,7,4.0,12.0,84,0.00,,,0.00,0.000000,,2013-02-26 08:51:00,